Time;durP1;ratioP1;P1;durP2;ratioP2;P2;SDS_P1;SDS_P2;PMS_P1;PMS_P2;Temp;Humidity;BMP_temperature;BMP_pressure;BME280_temperature;BME280_humidity;BME280_pressure;Samples;Min_cycle;Max_cycle;Signal;HPM_P1;HPM_P2
2021/08/09 00:01:34;;;;;;;0.32;0.32;;;15.60;99.90;;;;;;4401453;32;20070;-73
2021/08/09 00:04:00;;;;;;;0.30;0.30;;;15.60;99.90;;;;;;4401341;32;20140;-72
2021/08/09 00:06:25;;;;;;;0.20;0.20;;;15.60;99.90;;;;;;4401329;32;20089;-73
2021/08/09 00:08:51;;;;;;;0.30;0.30;;;15.50;99.90;;;;;;4400571;32;20429;-72
2021/08/09 00:11:17;;;;;;;0.30;0.30;;;15.50;99.90;;;;;;4401976;32;20083;-73
2021/08/09 00:13:43;;;;;;;0.20;0.20;;;15.50;99.90;;;;;;4400499;32;20074;-73
2021/08/09 00:16:08;;;;;;;0.20;0.20;;;15.50;99.90;;;;;;4400694;32;20073;-73
2021/08/09 00:18:34;;;;;;;0.30;0.30;;;15.50;99.90;;;;;;4400387;32;20087;-73
2021/08/09 00:21:00;;;;;;;0.20;0.20;;;15.40;99.90;;;;;;4401162;32;20389;-73
2021/08/09 00:23:25;;;;;;;0.30;0.30;;;15.50;99.90;;;;;;4400549;32;20566;-73
2021/08/09 00:25:51;;;;;;;0.30;0.30;;;15.40;99.90;;;;;;4400826;32;20645;-73
2021/08/09 00:28:16;;;;;;;0.20;0.20;;;15.40;99.90;;;;;;4401160;32;20095;-73
2021/08/09 00:30:42;;;;;;;0.32;0.32;;;15.40;99.90;;;;;;4401479;32;20535;-73
2021/08/09 00:33:07;;;;;;;5.87;1.95;;;15.20;99.90;;;;;;4401736;32;20057;-72
2021/08/09 00:35:33;;;;;;;3.15;1.65;;;15.10;99.90;;;;;;4387157;32;20583;-72
2021/08/09 00:37:59;;;;;;;0.20;0.20;;;15.00;99.90;;;;;;4386437;32;20094;-72
2021/08/09 00:40:24;;;;;;;0.47;0.47;;;15.00;99.90;;;;;;4385823;32;20071;-73
2021/08/09 00:42:50;;;;;;;0.40;0.40;;;15.00;99.90;;;;;;4385794;32;20067;-73
2021/08/09 00:45:15;;;;;;;0.30;0.30;;;15.00;99.90;;;;;;4386787;32;20121;-73
2021/08/09 00:47:41;;;;;;;0.28;0.28;;;15.10;99.90;;;;;;4385756;32;20066;-73
2021/08/09 00:50:07;;;;;;;0.25;0.25;;;15.00;99.90;;;;;;4386882;32;20083;-73
2021/08/09 00:52:33;;;;;;;0.20;0.20;;;15.10;99.90;;;;;;4385605;32;20086;-73
2021/08/09 00:54:58;;;;;;;0.30;0.30;;;15.10;99.90;;;;;;4385276;32;20082;-72
2021/08/09 00:57:24;;;;;;;0.30;0.30;;;15.00;99.90;;;;;;4385742;32;20058;-73
2021/08/09 00:59:50;;;;;;;0.30;0.30;;;14.90;99.90;;;;;;4385329;32;20087;-73
2021/08/09 01:02:16;;;;;;;0.30;0.30;;;14.90;99.90;;;;;;4385375;32;20062;-73
2021/08/09 01:04:41;;;;;;;0.30;0.30;;;14.90;99.90;;;;;;4386071;32;20125;-73
2021/08/09 01:07:07;;;;;;;0.30;0.30;;;14.90;99.90;;;;;;4386284;32;20113;-73
2021/08/09 01:09:44;;;;;;;0.20;0.20;;;14.90;99.90;;;;;;4386326;32;20122;-73
2021/08/09 01:12:18;;;;;;;0.20;0.20;;;15.00;99.90;;;;;;4386286;32;20121;-73
2021/08/09 01:15:07;;;;;;;0.30;0.30;;;14.90;99.90;;;;;;4385271;32;20070;-74
2021/08/09 01:17:37;;;;;;;0.57;0.50;;;14.60;99.90;;;;;;4373740;32;20126;-73
2021/08/09 01:20:14;;;;;;;0.40;0.40;;;14.80;99.90;;;;;;4385194;32;20074;-72
2021/08/09 01:23:01;;;;;;;0.52;0.52;;;14.80;99.90;;;;;;4385149;32;20071;-72
2021/08/09 01:25:37;;;;;;;0.37;0.37;;;14.80;99.90;;;;;;4385006;32;20121;-73
2021/08/09 01:28:05;;;;;;;0.40;0.40;;;14.80;99.90;;;;;;4385544;32;20078;-72
2021/08/09 01:30:32;;;;;;;0.40;0.40;;;14.80;99.90;;;;;;4385145;32;20171;-72
2021/08/09 01:32:58;;;;;;;0.32;0.32;;;14.80;99.90;;;;;;4385297;32;20531;-72
2021/08/09 01:35:26;;;;;;;0.30;0.30;;;14.90;99.90;;;;;;4400280;32;20081;-72
2021/08/09 01:37:55;;;;;;;0.28;0.28;;;14.80;99.90;;;;;;4400645;32;20493;-73
2021/08/09 01:40:22;;;;;;;0.30;0.30;;;14.80;99.90;;;;;;4400144;32;20065;-72
2021/08/09 01:42:48;;;;;;;1.00;0.95;;;14.70;99.90;;;;;;4401247;32;20126;-72
2021/08/09 01:45:15;;;;;;;0.30;0.30;;;14.70;99.90;;;;;;4400079;32;20413;-72
2021/08/09 01:47:42;;;;;;;0.28;0.28;;;14.70;99.90;;;;;;4399075;32;20548;-73
2021/08/09 01:50:09;;;;;;;0.22;0.22;;;14.70;99.90;;;;;;4401030;32;20429;-72
2021/08/09 01:52:37;;;;;;;0.30;0.30;;;14.80;99.90;;;;;;4400253;32;20121;-72
2021/08/09 01:55:03;;;;;;;0.30;0.30;;;14.70;99.90;;;;;;4399622;32;20169;-72
2021/08/09 01:57:29;;;;;;;0.55;0.52;;;14.70;99.90;;;;;;4400866;32;20483;-72
2021/08/09 01:59:54;;;;;;;0.30;0.30;;;14.70;99.90;;;;;;4400540;32;20066;-73
2021/08/09 02:02:27;;;;;;;3.53;1.33;;;14.60;99.90;;;;;;4400109;32;20117;-72
2021/08/09 02:04:52;;;;;;;0.30;0.30;;;14.70;99.90;;;;;;4399857;32;20085;-72
2021/08/09 02:07:18;;;;;;;0.37;0.37;;;14.70;99.90;;;;;;4399325;32;20120;-73
2021/08/09 02:09:44;;;;;;;0.20;0.20;;;14.70;99.90;;;;;;4399921;32;20413;-72
2021/08/09 02:12:09;;;;;;;0.30;0.30;;;14.70;99.90;;;;;;4400591;32;20129;-72
2021/08/09 02:14:41;;;;;;;0.50;0.50;;;14.50;99.90;;;;;;4401200;32;20503;-72
2021/08/09 02:17:31;;;;;;;0.20;0.20;;;14.60;99.90;;;;;;4399194;32;20093;-73
2021/08/09 02:20:03;;;;;;;0.30;0.30;;;14.60;99.90;;;;;;4388983;32;20070;-72
2021/08/09 02:22:47;;;;;;;0.30;0.30;;;14.60;99.90;;;;;;4400875;32;20120;-72
2021/08/09 02:25:16;;;;;;;0.30;0.30;;;14.50;99.90;;;;;;4399708;32;20088;-73
2021/08/09 02:27:44;;;;;;;0.37;0.37;;;14.60;99.90;;;;;;4399632;32;20369;-73
2021/08/09 02:30:12;;;;;;;0.20;0.20;;;14.60;99.90;;;;;;4399810;32;20077;-72
2021/08/09 02:32:38;;;;;;;1.37;0.50;;;14.70;99.90;;;;;;4400487;32;20066;-72
2021/08/09 02:35:05;;;;;;;0.30;0.30;;;14.60;99.90;;;;;;4389137;32;20070;-73
2021/08/09 02:37:31;;;;;;;0.22;0.22;;;14.60;99.90;;;;;;4384449;32;20066;-73
2021/08/09 02:39:58;;;;;;;0.35;0.35;;;14.60;99.90;;;;;;4384479;32;20070;-73
2021/08/09 02:42:24;;;;;;;0.28;0.28;;;14.60;99.90;;;;;;4385874;32;20921;-72
2021/08/09 02:44:50;;;;;;;1.20;0.98;;;14.50;99.90;;;;;;4384353;32;20070;-72
2021/08/09 02:47:16;;;;;;;0.30;0.30;;;14.40;99.90;;;;;;4383887;32;20078;-72
2021/08/09 02:49:48;;;;;;;0.37;0.37;;;14.50;99.90;;;;;;4385209;32;20131;-72
2021/08/09 02:52:13;;;;;;;0.20;0.20;;;14.50;99.90;;;;;;4384254;32;20128;-72
2021/08/09 02:54:39;;;;;;;0.30;0.30;;;14.50;99.90;;;;;;4384209;32;20503;-72
2021/08/09 02:57:07;;;;;;;0.32;0.32;;;14.40;99.90;;;;;;4385187;32;20066;-72
2021/08/09 02:59:32;;;;;;;0.20;0.20;;;14.50;99.90;;;;;;4384223;32;20083;-72
2021/08/09 03:01:58;;;;;;;0.30;0.30;;;14.50;99.90;;;;;;4383650;32;20654;-72
2021/08/09 03:04:26;;;;;;;20.27;2.72;;;14.50;99.90;;;;;;4384224;32;20085;-73
2021/08/09 03:06:54;;;;;;;0.20;0.20;;;14.50;99.90;;;;;;4384774;32;20067;-73
2021/08/09 03:09:20;;;;;;;0.30;0.30;;;14.40;99.90;;;;;;4383801;32;20086;-73
2021/08/09 03:11:46;;;;;;;1.40;0.68;;;14.40;99.90;;;;;;4383779;32;20508;-72
2021/08/09 03:14:31;;;;;;;23.45;0.82;;;14.40;99.90;;;;;;4384880;32;20066;-73
2021/08/09 03:16:59;;;;;;;0.40;0.40;;;14.30;99.90;;;;;;4383685;32;20066;-73
2021/08/09 03:19:24;;;;;;;0.75;0.50;;;14.30;99.90;;;;;;4387493;32;20521;-73
2021/08/09 03:21:52;;;;;;;0.20;0.20;;;14.30;99.90;;;;;;4386508;32;20075;-73
2021/08/09 03:24:18;;;;;;;0.30;0.30;;;14.10;99.90;;;;;;4386730;32;20087;-72
2021/08/09 03:26:44;;;;;;;0.47;0.47;;;14.10;99.90;;;;;;4396014;32;20070;-73
2021/08/09 03:29:09;;;;;;;0.20;0.20;;;14.00;99.90;;;;;;4401578;32;20514;-73
2021/08/09 03:31:35;;;;;;;0.22;0.22;;;14.10;99.90;;;;;;4401433;32;20086;-73
2021/08/09 03:34:00;;;;;;;0.95;0.43;;;14.00;99.90;;;;;;4401596;32;20062;-73
2021/08/09 03:36:26;;;;;;;0.30;0.30;;;14.00;99.90;;;;;;4401771;32;20471;-72
2021/08/09 03:38:51;;;;;;;0.20;0.20;;;14.00;99.90;;;;;;4401628;32;20061;-73
2021/08/09 03:41:17;;;;;;;0.30;0.30;;;14.10;99.90;;;;;;4401676;32;20078;-72
2021/08/09 03:43:42;;;;;;;0.30;0.30;;;14.10;99.90;;;;;;4401319;32;20555;-72
2021/08/09 03:46:09;;;;;;;0.57;0.57;;;14.10;99.90;;;;;;4401172;32;20121;-71
2021/08/09 03:48:35;;;;;;;0.40;0.40;;;14.10;99.90;;;;;;4400900;32;20066;-73
2021/08/09 03:51:00;;;;;;;0.30;0.30;;;14.10;99.90;;;;;;4402107;32;20079;-74
2021/08/09 03:53:26;;;;;;;0.47;0.47;;;13.90;99.90;;;;;;4400968;32;20350;-72
2021/08/09 03:55:51;;;;;;;0.30;0.30;;;13.90;99.90;;;;;;4401288;32;20073;-72
2021/08/09 03:58:17;;;;;;;3.15;0.50;;;13.90;99.90;;;;;;4401371;32;20125;-73
2021/08/09 04:00:42;;;;;;;0.47;0.47;;;14.00;99.90;;;;;;4401918;32;20570;-73
2021/08/09 04:03:08;;;;;;;1.23;0.40;;;14.00;99.90;;;;;;4401939;32;20143;-72
2021/08/09 04:05:34;;;;;;;0.65;0.52;;;14.00;99.90;;;;;;4401072;32;20066;-72
2021/08/09 04:07:59;;;;;;;0.30;0.30;;;14.10;99.90;;;;;;4401034;32;20070;-72
2021/08/09 04:10:25;;;;;;;0.30;0.30;;;14.10;99.90;;;;;;4401143;32;20082;-72
2021/08/09 04:12:50;;;;;;;0.30;0.30;;;14.10;99.90;;;;;;4402075;32;20069;-72
2021/08/09 04:15:15;;;;;;;0.30;0.30;;;14.00;99.90;;;;;;4401484;32;20066;-73
2021/08/09 04:17:42;;;;;;;0.50;0.50;;;14.00;99.90;;;;;;4400606;32;20074;-72
2021/08/09 04:20:08;;;;;;;0.30;0.30;;;13.90;99.90;;;;;;4401926;32;20070;-72
2021/08/09 04:22:33;;;;;;;0.30;0.30;;;14.00;99.90;;;;;;4394551;32;20070;-72
2021/08/09 04:25:01;;;;;;;2.00;0.70;;;14.00;99.90;;;;;;4398302;32;20062;-72
2021/08/09 04:27:26;;;;;;;4.68;1.05;;;13.90;99.90;;;;;;4398786;32;20065;-73
2021/08/09 04:29:52;;;;;;;0.22;0.22;;;13.90;99.90;;;;;;4400508;32;20075;-72
2021/08/09 04:32:19;;;;;;;0.45;0.45;;;14.00;99.90;;;;;;4400730;32;20083;-73
2021/08/09 04:34:45;;;;;;;0.30;0.30;;;14.00;99.90;;;;;;4400466;32;20124;-72
2021/08/09 04:37:11;;;;;;;0.65;0.40;;;14.00;99.90;;;;;;4400621;32;20077;-72
2021/08/09 04:39:37;;;;;;;1.00;0.90;;;14.00;99.90;;;;;;4403313;32;20074;-72
2021/08/09 04:42:04;;;;;;;0.25;0.25;;;14.00;99.90;;;;;;4415663;32;20086;-72
2021/08/09 04:44:30;;;;;;;0.60;0.60;;;14.00;99.90;;;;;;4416357;32;20139;-73
2021/08/09 04:46:57;;;;;;;2.22;0.52;;;14.10;99.90;;;;;;4415750;32;20074;-72
2021/08/09 04:49:23;;;;;;;0.30;0.30;;;14.10;99.90;;;;;;4415829;32;20533;-72
2021/08/09 04:51:48;;;;;;;0.60;0.60;;;14.20;99.90;;;;;;4415880;32;20082;-73
2021/08/09 04:54:14;;;;;;;0.40;0.40;;;14.20;99.90;;;;;;4399541;32;20169;-72
2021/08/09 04:56:39;;;;;;;0.40;0.40;;;14.10;99.90;;;;;;4400456;32;20132;-73
2021/08/09 04:59:04;;;;;;;0.88;0.60;;;14.20;99.90;;;;;;4400520;32;20083;-73
2021/08/09 05:01:30;;;;;;;0.40;0.40;;;14.20;99.90;;;;;;4394371;32;20090;-72
2021/08/09 05:03:55;;;;;;;0.25;0.25;;;14.20;99.90;;;;;;4394003;32;20066;-72
2021/08/09 05:06:21;;;;;;;0.20;0.20;;;14.10;99.90;;;;;;4398662;32;20086;-73
2021/08/09 05:08:47;;;;;;;0.30;0.30;;;14.10;99.90;;;;;;4399165;32;20066;-73
2021/08/09 05:11:13;;;;;;;0.28;0.28;;;14.10;99.90;;;;;;4398937;32;20070;-73
2021/08/09 05:13:38;;;;;;;0.35;0.35;;;14.20;99.90;;;;;;4398379;32;20066;-72
2021/08/09 05:16:04;;;;;;;1.55;0.55;;;14.20;99.90;;;;;;4401415;32;20081;-72
2021/08/09 05:18:30;;;;;;;0.30;0.30;;;14.20;99.90;;;;;;4382591;32;20117;-72
2021/08/09 05:20:55;;;;;;;0.32;0.32;;;14.30;99.90;;;;;;4397958;32;20386;-72
2021/08/09 05:23:21;;;;;;;0.30;0.30;;;14.40;99.90;;;;;;4407467;32;20074;-73
2021/08/09 05:25:46;;;;;;;0.30;0.30;;;14.40;99.90;;;;;;4412079;32;20069;-72
2021/08/09 05:28:12;;;;;;;0.60;0.60;;;14.50;99.90;;;;;;4380078;32;20077;-72
2021/08/09 05:30:38;;;;;;;0.35;0.35;;;14.50;99.90;;;;;;4389120;32;20600;-72
2021/08/09 05:33:04;;;;;;;0.40;0.40;;;14.50;99.90;;;;;;4378944;32;20074;-72
2021/08/09 05:35:30;;;;;;;0.57;0.57;;;14.60;99.90;;;;;;4396884;32;20065;-73
2021/08/09 05:37:55;;;;;;;0.20;0.20;;;14.60;99.90;;;;;;4395533;32;20102;-72
2021/08/09 05:40:21;;;;;;;1.55;0.45;;;14.70;99.90;;;;;;4390476;32;20630;-75
2021/08/09 05:42:50;;;;;;;0.82;0.68;;;14.70;99.90;;;;;;4394635;32;20092;-77
2021/08/09 05:45:16;;;;;;;0.47;0.47;;;14.80;99.90;;;;;;4392399;32;20516;-75
2021/08/09 05:47:43;;;;;;;0.40;0.40;;;14.90;99.90;;;;;;4390566;32;20067;-73
2021/08/09 05:50:10;;;;;;;1.05;0.30;;;15.00;99.90;;;;;;4391437;32;20070;-72
2021/08/09 05:52:35;;;;;;;0.30;0.30;;;15.10;99.90;;;;;;4390442;32;20086;-73
2021/08/09 05:55:03;;;;;;;0.30;0.30;;;15.20;99.90;;;;;;4387955;32;20169;-73
2021/08/09 05:57:28;;;;;;;0.22;0.22;;;15.20;99.90;;;;;;4387206;32;20515;-75
2021/08/09 05:59:54;;;;;;;0.37;0.37;;;15.30;99.90;;;;;;4389606;32;20103;-73
2021/08/09 06:02:20;;;;;;;0.32;0.32;;;15.30;99.90;;;;;;4390587;32;20070;-74
2021/08/09 06:04:46;;;;;;;0.35;0.35;;;15.40;99.90;;;;;;4390160;32;20142;-73
2021/08/09 06:07:13;;;;;;;0.40;0.40;;;15.50;99.90;;;;;;4395292;32;20193;-73
2021/08/09 06:09:40;;;;;;;0.20;0.20;;;15.50;99.90;;;;;;4391037;32;20116;-73
2021/08/09 06:12:06;;;;;;;0.50;0.50;;;15.60;99.90;;;;;;4388229;32;20133;-72
2021/08/09 06:14:31;;;;;;;0.40;0.40;;;15.70;99.90;;;;;;4387548;32;20079;-72
2021/08/09 06:16:57;;;;;;;0.30;0.30;;;15.80;99.90;;;;;;4392521;32;20062;-73
2021/08/09 06:19:22;;;;;;;0.30;0.30;;;15.90;99.90;;;;;;4395722;32;20065;-73
2021/08/09 06:21:48;;;;;;;0.73;0.73;;;16.00;99.90;;;;;;4385776;32;87763;-73
2021/08/09 06:24:13;;;;;;;0.20;0.20;;;16.10;99.90;;;;;;4384803;32;20250;-77
2021/08/09 06:26:39;;;;;;;0.30;0.30;;;16.20;99.90;;;;;;4389472;32;20357;-73
2021/08/09 06:29:04;;;;;;;0.30;0.30;;;16.20;99.90;;;;;;4386540;32;20425;-73
2021/08/09 06:31:29;;;;;;;0.30;0.30;;;16.20;99.90;;;;;;4391867;32;20102;-72
2021/08/09 06:33:55;;;;;;;0.20;0.20;;;16.20;99.90;;;;;;4396434;32;20113;-72
2021/08/09 06:36:20;;;;;;;0.45;0.45;;;16.20;99.90;;;;;;4389247;32;20078;-74
2021/08/09 06:38:46;;;;;;;0.30;0.30;;;16.20;99.90;;;;;;4397120;32;20555;-73
2021/08/09 06:41:32;;;;;;;0.30;0.30;;;16.20;99.90;;;;;;4383113;32;20089;-73
2021/08/09 06:43:59;;;;;;;0.30;0.30;;;16.30;99.90;;;;;;4365770;32;20082;-61
2021/08/09 06:46:24;;;;;;;0.40;0.40;;;16.40;99.90;;;;;;4365289;32;20062;-63
2021/08/09 06:48:50;;;;;;;0.37;0.37;;;16.50;99.90;;;;;;4366488;32;20516;-61
2021/08/09 06:51:15;;;;;;;1.40;0.77;;;16.50;99.90;;;;;;4374720;32;20553;-60
2021/08/09 06:53:41;;;;;;;0.37;0.37;;;16.60;99.90;;;;;;4376134;32;20106;-60
2021/08/09 06:56:06;;;;;;;0.47;0.47;;;16.60;99.90;;;;;;4376613;32;20166;-60
2021/08/09 06:58:32;;;;;;;0.25;0.25;;;16.50;99.90;;;;;;4376284;32;20079;-61
2021/08/09 07:00:57;;;;;;;0.22;0.22;;;16.50;99.90;;;;;;4378107;32;20092;-61
2021/08/09 07:03:23;;;;;;;0.30;0.30;;;16.40;99.90;;;;;;4355667;32;20484;-61
2021/08/09 07:05:48;;;;;;;0.55;0.55;;;16.40;99.90;;;;;;4359058;32;20118;-61
2021/08/09 07:08:14;;;;;;;0.55;0.55;;;16.40;99.90;;;;;;4352795;32;20178;-61
2021/08/09 07:10:42;;;;;;;0.45;0.45;;;16.40;99.90;;;;;;4369290;32;20106;-60
2021/08/09 07:13:08;;;;;;;0.40;0.40;;;16.40;99.90;;;;;;4354529;32;20103;-62
2021/08/09 07:15:33;;;;;;;0.40;0.40;;;16.40;99.90;;;;;;4361362;32;20071;-63
2021/08/09 07:18:00;;;;;;;0.57;0.40;;;16.40;99.90;;;;;;4354984;32;20074;-61
2021/08/09 07:20:25;;;;;;;0.32;0.32;;;16.50;99.90;;;;;;4371704;32;20079;-61
2021/08/09 07:22:51;;;;;;;0.30;0.30;;;16.50;99.90;;;;;;4362992;32;20469;-62
2021/08/09 07:25:17;;;;;;;0.30;0.30;;;16.60;99.90;;;;;;4341682;32;20131;-60
2021/08/09 07:27:43;;;;;;;0.40;0.40;;;16.70;99.90;;;;;;4342918;32;20497;-60
2021/08/09 07:30:11;;;;;;;0.30;0.30;;;16.90;99.90;;;;;;4435353;27;20157;-77
2021/08/09 07:35:06;;;;;;;0.20;0.20;;;17.00;99.90;;;;;;4425653;32;20412;-60
2021/08/09 07:37:32;;;;;;;0.30;0.30;;;17.20;99.90;;;;;;4418510;32;20159;-59
2021/08/09 07:39:58;;;;;;;0.50;0.50;;;17.20;99.90;;;;;;4398044;32;20153;-58
2021/08/09 07:42:24;;;;;;;0.30;0.30;;;17.30;99.90;;;;;;4413680;32;20358;-61
2021/08/09 07:44:50;;;;;;;0.30;0.30;;;17.40;99.90;;;;;;4429806;32;20085;-61
2021/08/09 07:47:16;;;;;;;0.40;0.40;;;17.40;99.90;;;;;;4415782;32;20080;-63
2021/08/09 07:49:42;;;;;;;0.30;0.30;;;17.40;99.90;;;;;;4425243;32;20081;-61
2021/08/09 07:52:08;;;;;;;0.82;0.82;;;17.50;99.90;;;;;;4410423;32;20131;-61
2021/08/09 07:54:33;;;;;;;0.30;0.30;;;17.50;99.90;;;;;;4424611;32;20586;-63
2021/08/09 07:57:03;;;;;;;0.22;0.22;;;17.50;99.90;;;;;;4428474;32;20148;-61
2021/08/09 07:59:29;;;;;;;0.40;0.40;;;17.50;99.90;;;;;;4427596;32;20520;-60
2021/08/09 08:01:54;;;;;;;0.20;0.20;;;17.50;99.90;;;;;;4430624;32;20122;-60
2021/08/09 08:04:20;;;;;;;0.50;0.50;;;17.50;99.90;;;;;;4432920;32;20495;-58
2021/08/09 08:06:45;;;;;;;0.80;0.40;;;17.50;99.90;;;;;;4431295;32;20439;-57
2021/08/09 08:09:11;;;;;;;3.00;1.17;;;17.60;99.90;;;;;;4415009;32;20082;-57
2021/08/09 08:11:36;;;;;;;0.77;0.77;;;17.50;99.90;;;;;;4433410;32;20104;-58
2021/08/09 08:14:02;;;;;;;0.30;0.30;;;17.50;99.90;;;;;;4428098;32;20090;-57
2021/08/09 08:16:28;;;;;;;0.73;0.73;;;17.60;99.90;;;;;;4429045;32;20085;-58
2021/08/09 08:18:53;;;;;;;0.50;0.50;;;17.70;99.90;;;;;;4431018;32;20072;-59
2021/08/09 08:21:19;;;;;;;0.30;0.30;;;17.70;99.90;;;;;;4436245;32;20664;-59
2021/08/09 08:23:44;;;;;;;0.20;0.20;;;17.80;99.90;;;;;;4409307;32;20065;-63
2021/08/09 08:26:10;;;;;;;1.95;0.68;;;17.90;99.90;;;;;;4435397;32;20169;-64
2021/08/09 08:28:36;;;;;;;0.50;0.50;;;18.00;99.90;;;;;;4416119;32;20559;-61
2021/08/09 08:31:02;;;;;;;0.50;0.50;;;18.10;99.90;;;;;;4434242;32;20463;-61
2021/08/09 08:33:28;;;;;;;0.35;0.35;;;18.10;99.90;;;;;;4428453;32;20566;-62
2021/08/09 08:35:53;;;;;;;0.40;0.40;;;18.00;99.90;;;;;;4434733;32;20061;-63
2021/08/09 08:38:19;;;;;;;0.30;0.30;;;17.90;99.90;;;;;;4422690;32;20089;-62
2021/08/09 08:40:48;;;;;;;1.02;1.00;;;17.90;99.90;;;;;;4437068;32;20155;-64
2021/08/09 08:43:23;;;;;;;0.60;0.35;;;18.00;99.90;;;;;;4442831;32;20129;-66
2021/08/09 08:45:58;;;;;;;0.57;0.57;;;18.00;99.90;;;;;;4426861;32;20640;-63
2021/08/09 08:48:25;;;;;;;0.30;0.30;;;18.10;99.90;;;;;;4455122;26;20543;-64
2021/08/09 08:50:51;;;;;;;0.30;0.30;;;18.10;99.90;;;;;;4458615;26;20081;-76
2021/08/09 08:53:18;;;;;;;0.60;0.60;;;18.10;99.90;;;;;;4434492;32;20131;-75
2021/08/09 08:55:43;;;;;;;0.30;0.30;;;18.10;99.90;;;;;;4432470;32;20060;-75
2021/08/09 08:58:09;;;;;;;0.25;0.25;;;18.20;99.90;;;;;;4430763;32;20077;-75
2021/08/09 09:00:38;;;;;;;0.20;0.20;;;18.20;99.90;;;;;;4428739;32;20521;-74
2021/08/09 09:03:25;;;;;;;0.30;0.30;;;18.30;99.90;;;;;;4430822;32;20049;-73
2021/08/09 09:06:01;;;;;;;0.30;0.30;;;18.30;99.90;;;;;;4418594;32;20065;-73
2021/08/09 09:08:44;;;;;;;0.75;0.75;;;18.30;99.90;;;;;;4430281;32;20188;-74
2021/08/09 09:11:32;;;;;;;0.30;0.30;;;18.20;99.90;;;;;;4434674;32;20164;-73
2021/08/09 09:14:01;;;;;;;1.77;0.37;;;18.40;99.90;;;;;;4418007;32;20049;-74
2021/08/09 09:16:44;;;;;;;0.62;0.57;;;18.60;99.90;;;;;;4428586;32;20065;-74
2021/08/09 09:19:10;;;;;;;0.30;0.30;;;18.70;99.90;;;;;;4426694;32;20117;-74
2021/08/09 09:21:41;;;;;;;0.35;0.30;;;18.70;99.90;;;;;;4424175;32;20176;-73
2021/08/09 09:24:11;;;;;;;0.40;0.40;;;18.80;99.90;;;;;;4420133;32;20272;-72
2021/08/09 09:26:40;;;;;;;0.40;0.40;;;18.80;99.90;;;;;;4421841;32;20177;-74
2021/08/09 09:31:34;;;;;;;0.60;0.60;;;18.90;99.90;;;;;;4399531;32;20439;-64
2021/08/09 09:34:05;;;;;;;0.35;0.35;;;19.10;99.90;;;;;;4398012;32;20094;-66
2021/08/09 09:36:47;;;;;;;0.50;0.50;;;19.30;99.90;;;;;;4410450;32;20062;-65
2021/08/09 09:39:34;;;;;;;0.40;0.40;;;19.50;99.90;;;;;;4411754;32;20109;-66
2021/08/09 09:42:03;;;;;;;0.40;0.40;;;19.70;99.90;;;;;;4400547;32;20074;-65
2021/08/09 09:44:31;;;;;;;0.37;0.37;;;19.90;99.90;;;;;;4408259;32;20496;-65
2021/08/09 09:47:25;;;;;;;0.55;0.25;;;19.90;99.90;;;;;;4413523;32;20350;-67
2021/08/09 09:49:53;;;;;;;0.30;0.30;;;19.90;99.90;;;;;;4402026;32;20334;-65
2021/08/09 09:52:45;;;;;;;0.40;0.40;;;19.80;99.90;;;;;;4410284;32;20527;-66
2021/08/09 09:55:12;;;;;;;2.75;0.52;;;19.80;99.90;;;;;;4389587;32;20788;-67
2021/08/09 09:57:39;;;;;;;0.20;0.20;;;20.00;99.90;;;;;;4395260;32;20170;-65
2021/08/09 10:00:10;;;;;;;0.30;0.30;;;19.90;99.90;;;;;;4396353;32;20074;-66
2021/08/09 10:02:35;;;;;;;0.30;0.30;;;19.90;99.90;;;;;;4399653;32;20443;-67
2021/08/09 10:05:01;;;;;;;0.20;0.20;;;20.00;99.90;;;;;;4393479;32;20074;-67
2021/08/09 10:07:28;;;;;;;0.45;0.45;;;20.20;99.90;;;;;;4395401;32;20177;-65
2021/08/09 10:09:55;;;;;;;0.20;0.20;;;20.00;99.90;;;;;;4393866;32;20522;-67
2021/08/09 10:12:38;;;;;;;0.30;0.30;;;19.90;99.90;;;;;;4380484;32;20668;-64
2021/08/09 10:15:05;;;;;;;0.20;0.20;;;20.10;99.90;;;;;;4400225;32;20526;-62
2021/08/09 10:17:31;;;;;;;0.30;0.30;;;20.30;99.90;;;;;;4381633;32;20244;-65
2021/08/09 10:20:03;;;;;;;1.23;0.47;;;20.70;99.90;;;;;;4392811;32;20077;-63
2021/08/09 10:22:29;;;;;;;0.30;0.30;;;21.20;99.90;;;;;;4381103;32;20093;-62
2021/08/09 10:24:56;;;;;;;0.25;0.25;;;21.70;99.90;;;;;;4395201;32;20136;-63
2021/08/09 10:27:51;;;;;;;0.20;0.20;;;22.00;99.90;;;;;;4398874;32;20069;-60
2021/08/09 10:30:18;;;;;;;0.20;0.20;;;22.00;99.90;;;;;;4389627;32;20153;-63
2021/08/09 10:32:46;;;;;;;0.30;0.30;;;21.60;99.90;;;;;;4384217;32;20078;-63
2021/08/09 10:35:34;;;;;;;1.85;1.08;;;21.60;99.90;;;;;;4367060;32;20468;-62
2021/08/09 10:38:18;;;;;;;0.20;0.20;;;22.10;99.90;;;;;;4368426;32;20236;-64
2021/08/09 10:40:46;;;;;;;1.25;0.30;;;22.20;99.90;;;;;;4378553;32;20074;-64
2021/08/09 10:43:12;;;;;;;0.30;0.30;;;22.40;99.90;;;;;;4378486;32;20139;-61
2021/08/09 10:45:44;;;;;;;0.65;0.30;;;22.40;99.90;;;;;;4371716;32;20097;-65
2021/08/09 10:48:11;;;;;;;0.40;0.40;;;22.70;99.90;;;;;;4380006;32;20089;-63
2021/08/09 10:50:41;;;;;;;0.20;0.20;;;22.60;99.90;;;;;;4391013;32;20101;-65
2021/08/09 10:53:28;;;;;;;0.20;0.20;;;22.70;99.90;;;;;;4395470;32;20078;-66
2021/08/09 10:55:56;;;;;;;0.20;0.20;;;22.90;99.90;;;;;;4378271;32;20567;-65
2021/08/09 10:58:43;;;;;;;0.40;0.40;;;23.00;99.90;;;;;;4381809;32;20066;-65
2021/08/09 11:01:10;;;;;;;0.40;0.40;;;22.60;99.90;;;;;;4386958;32;20086;-64
2021/08/09 11:04:05;;;;;;;0.60;0.60;;;22.60;99.90;;;;;;4371521;32;20094;-65
2021/08/09 11:06:38;;;;;;;0.55;0.55;;;23.00;99.90;;;;;;4391315;32;20592;-66
2021/08/09 11:09:33;;;;;;;0.20;0.20;;;23.40;99.90;;;;;;4397551;32;20181;-66
2021/08/09 11:12:23;;;;;;;0.15;0.15;;;24.00;99.50;;;;;;4392637;32;20090;-66
2021/08/09 11:15:07;;;;;;;0.20;0.20;;;24.50;98.60;;;;;;4388684;32;20432;-66
2021/08/09 11:17:38;;;;;;;0.10;0.10;;;24.90;95.70;;;;;;4383697;32;20215;-68
2021/08/09 11:20:14;;;;;;;0.10;0.10;;;25.00;95.40;;;;;;4400485;32;20496;-66
2021/08/09 11:22:42;;;;;;;0.10;0.10;;;24.90;95.40;;;;;;4397689;32;20058;-66
2021/08/09 11:25:48;;;;;;;0.30;0.30;;;25.00;94.70;;;;;;4398982;32;20444;-67
2021/08/09 11:28:18;;;;;;;0.10;0.10;;;25.20;95.60;;;;;;4380320;32;20507;-68
2021/08/09 11:30:53;;;;;;;0.10;0.10;;;25.50;94.60;;;;;;4393201;32;20241;-67
2021/08/09 11:33:37;;;;;;;0.50;0.50;;;25.50;95.70;;;;;;4392140;32;20731;-66
2021/08/09 11:36:05;;;;;;;0.10;0.10;;;25.40;94.30;;;;;;4380128;32;20090;-64
2021/08/09 11:38:49;;;;;;;0.10;0.10;;;25.30;94.40;;;;;;4390237;32;20090;-59
2021/08/09 11:41:20;;;;;;;0.20;0.20;;;25.20;94.00;;;;;;4401244;32;20111;-60
2021/08/09 11:43:47;;;;;;;6.43;0.65;;;25.30;94.40;;;;;;4382167;32;20405;-64
2021/08/09 11:46:15;;;;;;;0.30;0.30;;;25.10;93.40;;;;;;4396158;32;20382;-64
2021/08/09 11:48:42;;;;;;;0.10;0.10;;;25.30;93.70;;;;;;4380190;32;20505;-65
2021/08/09 11:51:11;;;;;;;0.17;0.17;;;25.90;93.70;;;;;;4385685;32;20085;-63
2021/08/09 11:53:39;;;;;;;0.13;0.13;;;25.90;93.70;;;;;;4368410;32;20089;-64
2021/08/09 11:56:07;;;;;;;0.30;0.30;;;25.60;92.40;;;;;;4383270;32;20086;-64
2021/08/09 11:58:32;;;;;;;0.13;0.13;;;25.20;92.80;;;;;;4387740;32;20062;-64
2021/08/09 12:00:58;;;;;;;0.35;0.35;;;24.90;93.40;;;;;;4399774;32;20058;-65
2021/08/09 12:03:27;;;;;;;0.17;0.10;;;24.80;93.50;;;;;;4403441;32;20124;-64
2021/08/09 12:05:55;;;;;;;1.17;0.85;;;24.70;93.70;;;;;;4402417;32;20158;-64
2021/08/09 12:08:21;;;;;;;0.35;0.28;;;24.50;94.40;;;;;;4377149;32;20097;-64
2021/08/09 12:10:46;;;;;;;0.10;0.10;;;24.40;94.60;;;;;;4406518;32;20066;-64
2021/08/09 12:13:29;;;;;;;0.45;0.45;;;24.20;96.00;;;;;;4404887;32;20374;-63
2021/08/09 12:16:13;;;;;;;0.30;0.30;;;24.20;95.30;;;;;;4388894;32;20074;-63
2021/08/09 12:18:50;;;;;;;0.17;0.17;;;24.10;95.40;;;;;;4406060;32;20518;-62
2021/08/09 12:21:16;;;;;;;0.47;0.47;;;24.00;94.00;;;;;;4410416;32;20082;-64
2021/08/09 12:23:53;;;;;;;0.25;0.25;;;24.00;94.50;;;;;;4407530;32;20208;-64
2021/08/09 12:26:23;;;;;;;0.28;0.28;;;24.00;95.00;;;;;;4394235;32;20073;-64
2021/08/09 12:28:52;;;;;;;0.15;0.15;;;24.00;94.40;;;;;;4396873;32;20103;-64
2021/08/09 12:31:40;;;;;;;0.30;0.30;;;24.10;94.90;;;;;;4407810;32;20262;-65
2021/08/09 12:34:08;;;;;;;0.10;0.10;;;24.10;95.30;;;;;;4374851;32;20505;-65
2021/08/09 12:36:35;;;;;;;0.20;0.20;;;24.20;94.40;;;;;;4406515;32;20073;-64
2021/08/09 12:39:01;;;;;;;0.60;0.57;;;24.20;95.10;;;;;;4391282;32;20708;-63
2021/08/09 12:41:30;;;;;;;0.40;0.40;;;24.40;94.00;;;;;;4389902;32;20146;-63
2021/08/09 12:43:56;;;;;;;0.13;0.10;;;24.80;93.70;;;;;;4379506;32;20116;-63
2021/08/09 12:46:22;;;;;;;0.10;0.10;;;25.00;93.10;;;;;;4381807;32;20404;-63
2021/08/09 12:48:49;;;;;;;0.10;0.10;;;25.60;92.20;;;;;;4392395;32;20136;-64
2021/08/09 12:51:15;;;;;;;2.00;0.28;;;26.40;91.50;;;;;;4405138;32;20185;-64
2021/08/09 12:53:41;;;;;;;0.10;0.10;;;27.30;90.30;;;;;;4389809;32;20151;-63
2021/08/09 12:56:06;;;;;;;1.20;0.65;;;27.50;89.40;;;;;;4405647;32;21842;-62
2021/08/09 12:58:32;;;;;;;0.00;0.00;;;27.10;89.20;;;;;;4406078;32;20082;-64
2021/08/09 13:00:57;;;;;;;0.17;0.17;;;27.00;87.40;;;;;;4404118;32;20432;-63